Terminal Aerodrome Forecast
Issued by NWS Twin Cities, MN

Home | Current Version | Previous Version | Graphics & Text | Print | Product List | Glossary On
Versions: 1 2 3 4 5 6 7 8 9 10 11 12 13 14 15 16
965
FTUS43 KMPX 012338
TAFSTC
TAF
KSTC 012338Z 0200/0224 32006KT P6SM OVC022
     FM020400 32005KT P6SM OVC018
     FM021700 32006KT P6SM OVC024=

USA.gov is the U.S. government's official web portal to all federal, state and local government web resources and services.